Time;durP1;ratioP1;P1;durP2;ratioP2;P2;SDS_P1;SDS_P2;PMS_P1;PMS_P2;Temp;Humidity;BMP_temperature;BMP_pressure;BME280_temperature;BME280_humidity;BME280_pressure;Samples;Min_cycle;Max_cycle;Signal;HPM_P1;HPM_P2
2021/10/01 00:02:23;;;;;;;4.50;1.05;;;11.10;78.80;;;;;;4998804;28;20026;-67
2021/10/01 00:04:49;;;;;;;2.63;1.00;;;11.10;78.70;;;;;;5008952;28;20101;-67
2021/10/01 00:07:15;;;;;;;5.45;1.20;;;11.10;78.60;;;;;;5014281;28;20028;-67
2021/10/01 00:09:42;;;;;;;7.43;1.50;;;11.10;78.80;;;;;;5004312;28;20021;-66
2021/10/01 00:12:08;;;;;;;4.80;1.25;;;11.10;78.70;;;;;;5008717;28;20033;-67
2021/10/01 00:14:35;;;;;;;4.93;1.00;;;11.10;78.40;;;;;;5007312;28;20036;-67
2021/10/01 00:17:02;;;;;;;3.78;1.20;;;11.20;78.10;;;;;;5007212;28;20022;-65
2021/10/01 00:19:28;;;;;;;3.53;1.10;;;11.20;78.30;;;;;;4998311;28;20225;-67
2021/10/01 00:21:54;;;;;;;2.38;1.15;;;11.10;78.40;;;;;;4998601;28;20042;-67
2021/10/01 00:24:19;;;;;;;2.88;1.13;;;11.20;78.70;;;;;;5010018;28;20030;-67
2021/10/01 00:26:46;;;;;;;3.90;1.10;;;11.20;78.40;;;;;;5002390;28;20186;-67
2021/10/01 00:29:12;;;;;;;6.80;1.08;;;11.20;78.20;;;;;;5010483;28;20026;-65
2021/10/01 00:31:38;;;;;;;4.20;1.33;;;11.20;78.40;;;;;;5007184;28;20033;-66
2021/10/01 00:34:06;;;;;;;2.53;0.95;;;11.30;77.70;;;;;;5005904;28;20654;-67
2021/10/01 00:36:32;;;;;;;3.38;1.02;;;11.20;78.10;;;;;;5005311;28;20123;-66
2021/10/01 00:38:59;;;;;;;2.03;0.98;;;11.20;78.40;;;;;;5004301;28;20457;-66
2021/10/01 00:41:27;;;;;;;3.13;0.90;;;11.30;77.70;;;;;;5004953;28;20493;-65
2021/10/01 00:43:54;;;;;;;4.72;0.80;;;11.30;78.20;;;;;;5002962;28;20090;-67
2021/10/01 00:46:20;;;;;;;3.33;1.10;;;11.30;77.90;;;;;;5013726;28;20033;-68
2021/10/01 00:48:45;;;;;;;4.07;1.25;;;11.30;77.90;;;;;;5006444;28;20025;-68
2021/10/01 00:51:12;;;;;;;6.20;1.27;;;11.40;77.40;;;;;;5005183;28;20115;-68
2021/10/01 00:53:37;;;;;;;5.40;1.00;;;11.40;76.90;;;;;;4997247;28;20037;-66
2021/10/01 00:56:04;;;;;;;4.88;1.15;;;11.40;76.80;;;;;;5003509;28;20037;-65
2021/10/01 00:58:30;;;;;;;4.20;1.10;;;11.50;76.60;;;;;;5009958;28;20049;-67
2021/10/01 01:01:12;;;;;;;3.30;1.20;;;11.50;76.50;;;;;;5003302;28;20212;-67
2021/10/01 01:03:44;;;;;;;8.32;1.10;;;11.50;76.70;;;;;;5003768;28;20087;-65
2021/10/01 01:06:28;;;;;;;4.32;1.20;;;11.50;76.00;;;;;;5010320;28;20092;-67
2021/10/01 01:08:54;;;;;;;1.83;0.90;;;11.60;76.30;;;;;;5014206;28;20026;-67
2021/10/01 01:11:32;;;;;;;1.80;1.00;;;11.50;76.60;;;;;;5005384;28;20041;-68
2021/10/01 01:14:06;;;;;;;4.70;0.73;;;11.50;76.30;;;;;;4999492;28;20026;-68
2021/10/01 01:16:35;;;;;;;4.28;0.93;;;11.50;76.70;;;;;;5006239;28;20137;-67
2021/10/01 01:19:02;;;;;;;8.38;1.30;;;11.60;76.30;;;;;;5001003;28;20042;-67
2021/10/01 01:21:28;;;;;;;6.20;1.30;;;11.60;76.20;;;;;;5004041;28;20029;-67
2021/10/01 01:24:08;;;;;;;2.28;0.77;;;11.60;76.50;;;;;;5003110;28;20052;-67
2021/10/01 01:26:55;;;;;;;4.57;1.17;;;11.60;75.90;;;;;;5002494;28;20600;-67
2021/10/01 01:29:44;;;;;;;4.80;0.90;;;11.60;76.20;;;;;;5002141;28;20029;-67
2021/10/01 01:32:21;;;;;;;3.95;1.20;;;11.60;76.10;;;;;;5006770;28;21788;-67
2021/10/01 01:34:51;;;;;;;3.70;0.88;;;11.60;76.50;;;;;;5004395;28;20030;-66
2021/10/01 01:37:25;;;;;;;5.30;1.17;;;11.60;76.70;;;;;;4999788;28;20042;-67
2021/10/01 01:39:51;;;;;;;2.88;1.10;;;11.60;76.40;;;;;;5005716;28;20053;-67
2021/10/01 01:42:18;;;;;;;4.03;1.10;;;11.60;76.50;;;;;;5006775;28;20034;-67
2021/10/01 01:44:46;;;;;;;2.58;1.00;;;11.60;76.40;;;;;;5002126;28;20084;-67
2021/10/01 01:47:12;;;;;;;4.82;0.90;;;11.60;76.20;;;;;;5003169;28;20037;-67
2021/10/01 01:49:39;;;;;;;2.33;0.88;;;11.60;76.80;;;;;;5003662;28;20084;-67
2021/10/01 01:52:06;;;;;;;4.63;1.20;;;11.60;76.50;;;;;;5010650;28;20044;-67
2021/10/01 01:54:33;;;;;;;3.67;0.80;;;11.60;76.50;;;;;;5011898;28;20109;-67
2021/10/01 01:57:01;;;;;;;3.80;1.10;;;11.50;77.00;;;;;;5005675;28;20025;-65
2021/10/01 01:59:29;;;;;;;4.95;1.10;;;11.40;76.60;;;;;;5009577;28;20033;-66
2021/10/01 02:01:56;;;;;;;3.03;0.80;;;11.40;77.20;;;;;;4999025;28;20065;-67
2021/10/01 02:04:23;;;;;;;5.82;1.02;;;11.40;77.40;;;;;;5000055;28;20022;-65
2021/10/01 02:06:49;;;;;;;4.53;0.95;;;11.40;77.50;;;;;;5006439;28;20026;-67
2021/10/01 02:09:16;;;;;;;3.50;1.10;;;11.30;77.60;;;;;;5009187;28;20577;-67
2021/10/01 02:11:45;;;;;;;5.28;1.13;;;11.20;77.80;;;;;;5000295;28;20643;-64
2021/10/01 02:14:14;;;;;;;3.60;0.90;;;11.10;78.20;;;;;;5019860;28;20030;-67
2021/10/01 02:16:42;;;;;;;6.25;1.20;;;11.10;78.00;;;;;;5013540;28;20116;-66
2021/10/01 02:19:09;;;;;;;4.47;1.10;;;11.00;78.40;;;;;;5005336;28;20514;-67
2021/10/01 02:21:36;;;;;;;6.97;1.40;;;11.00;78.70;;;;;;5004474;28;20042;-66
2021/10/01 02:24:02;;;;;;;5.28;1.10;;;11.00;78.30;;;;;;5003440;28;20026;-67
2021/10/01 02:26:44;;;;;;;3.80;1.30;;;11.00;78.50;;;;;;5001390;28;20092;-65
2021/10/01 02:29:25;;;;;;;7.10;0.88;;;11.00;78.80;;;;;;4996505;28;20026;-67
2021/10/01 02:32:21;;;;;;;2.75;0.95;;;11.00;78.90;;;;;;5006755;28;20026;-67
2021/10/01 02:34:47;;;;;;;3.58;1.10;;;11.00;78.70;;;;;;4997273;28;20429;-66
2021/10/01 02:37:14;;;;;;;5.07;1.00;;;11.00;78.70;;;;;;5000767;28;20022;-67
2021/10/01 02:39:42;;;;;;;2.40;1.02;;;10.90;78.60;;;;;;5010949;28;20037;-65
2021/10/01 02:42:09;;;;;;;2.70;0.90;;;10.90;79.00;;;;;;5005357;28;20034;-67
2021/10/01 02:44:35;;;;;;;3.25;0.82;;;10.90;79.10;;;;;;5001728;28;20045;-67
2021/10/01 02:47:02;;;;;;;3.83;1.05;;;10.80;79.20;;;;;;5004866;28;20030;-66
2021/10/01 02:49:29;;;;;;;3.53;0.95;;;10.90;78.80;;;;;;5003531;28;20030;-67
2021/10/01 02:51:59;;;;;;;1.77;0.70;;;10.70;79.40;;;;;;5003486;28;20037;-65
2021/10/01 02:54:43;;;;;;;5.60;1.13;;;10.70;79.50;;;;;;5001253;28;20505;-65
2021/10/01 02:57:14;;;;;;;4.43;1.13;;;10.60;79.50;;;;;;5012145;28;20040;-67
2021/10/01 02:59:41;;;;;;;;;;;10.60;79.70;;;;;;4997812;28;20041;-68
2021/10/01 03:02:08;;;;;;;4.38;1.10;;;10.60;79.90;;;;;;5001535;28;20462;-68
2021/10/01 03:04:36;;;;;;;4.40;0.98;;;10.60;80.00;;;;;;5002508;28;20439;-66
2021/10/01 03:07:04;;;;;;;3.97;0.90;;;10.50;80.30;;;;;;5005632;28;20038;-67
2021/10/01 03:09:31;;;;;;;5.13;1.38;;;10.50;80.20;;;;;;5000862;28;20370;-67
2021/10/01 03:11:59;;;;;;;5.90;1.30;;;10.50;80.40;;;;;;5005293;28;20037;-67
2021/10/01 03:14:25;;;;;;;2.83;0.88;;;10.50;80.10;;;;;;5002067;28;20030;-67
2021/10/01 03:16:52;;;;;;;6.03;1.40;;;10.40;81.00;;;;;;5003973;28;20902;-67
2021/10/01 03:19:22;;;;;;;2.75;0.90;;;10.40;80.90;;;;;;5000829;28;20115;-67
2021/10/01 03:21:51;;;;;;;4.82;0.98;;;10.50;80.50;;;;;;4994415;28;20378;-67
2021/10/01 03:24:20;;;;;;;5.15;1.10;;;10.50;80.40;;;;;;5012447;28;20107;-65
2021/10/01 03:26:46;;;;;;;6.40;0.88;;;10.50;80.30;;;;;;4999208;28;20029;-65
2021/10/01 03:29:12;;;;;;;2.10;0.85;;;10.50;80.30;;;;;;5001405;28;20413;-67
2021/10/01 03:31:37;;;;;;;4.22;1.30;;;10.50;80.10;;;;;;5001572;28;20544;-65
2021/10/01 03:34:03;;;;;;;3.83;1.00;;;10.50;80.30;;;;;;5000937;28;20034;-67
2021/10/01 03:36:29;;;;;;;3.85;1.05;;;10.50;80.40;;;;;;4995785;28;20125;-67
2021/10/01 03:38:56;;;;;;;5.88;1.17;;;10.40;80.70;;;;;;5002922;28;20026;-67
2021/10/01 03:41:22;;;;;;;2.88;0.90;;;10.40;80.60;;;;;;5004409;28;20025;-67
2021/10/01 03:43:48;;;;;;;2.72;0.90;;;10.40;80.80;;;;;;4998550;28;20034;-67
2021/10/01 03:46:14;;;;;;;4.30;0.80;;;10.40;80.60;;;;;;5001236;28;20088;-67
2021/10/01 03:48:39;;;;;;;2.65;0.95;;;10.40;80.30;;;;;;5011043;28;20572;-66
2021/10/01 03:51:05;;;;;;;2.28;1.00;;;10.40;80.70;;;;;;5002190;28;20046;-67
2021/10/01 03:53:31;;;;;;;3.05;1.00;;;10.40;80.40;;;;;;5003200;28;20026;-66
2021/10/01 03:55:56;;;;;;;3.30;0.98;;;10.40;80.30;;;;;;4999247;28;20096;-67
2021/10/01 03:58:22;;;;;;;6.53;1.33;;;10.30;80.40;;;;;;4997144;28;20034;-67
2021/10/01 04:00:48;;;;;;;2.35;0.80;;;10.30;80.50;;;;;;4995752;28;20140;-67
2021/10/01 04:03:13;;;;;;;4.50;1.08;;;10.30;80.50;;;;;;5000504;28;20030;-65
2021/10/01 04:05:40;;;;;;;4.65;1.23;;;10.20;80.60;;;;;;5008359;28;20034;-67
2021/10/01 04:08:10;;;;;;;1.38;0.82;;;10.30;80.30;;;;;;4998246;28;20133;-67
2021/10/01 04:10:36;;;;;;;6.32;1.23;;;10.20;80.40;;;;;;5006566;28;20525;-67
2021/10/01 04:13:03;;;;;;;3.53;0.80;;;10.20;80.30;;;;;;4998302;28;20033;-66
2021/10/01 04:15:29;;;;;;;3.75;0.88;;;10.30;80.20;;;;;;4999453;28;20235;-65
2021/10/01 04:17:55;;;;;;;5.70;1.40;;;10.20;80.40;;;;;;5002701;28;20030;-71
2021/10/01 04:20:20;;;;;;;3.95;1.10;;;10.10;80.80;;;;;;5002707;28;20029;-64
2021/10/01 04:22:46;;;;;;;5.18;1.10;;;10.10;80.50;;;;;;4995115;28;20038;-64
2021/10/01 04:25:12;;;;;;;4.38;0.90;;;10.10;80.60;;;;;;5000378;28;20369;-66
2021/10/01 04:27:38;;;;;;;3.95;1.00;;;10.10;80.50;;;;;;4998819;28;20033;-65
2021/10/01 04:30:04;;;;;;;2.33;0.70;;;10.10;80.40;;;;;;5009846;28;20049;-64
2021/10/01 04:32:31;;;;;;;4.47;1.35;;;10.20;80.10;;;;;;5007545;28;20061;-64
2021/10/01 04:35:03;;;;;;;4.38;0.95;;;10.20;80.30;;;;;;5004546;28;20030;-64
2021/10/01 04:37:28;;;;;;;;;;;10.10;80.60;;;;;;5005431;28;20101;-64
2021/10/01 04:39:54;;;;;;;2.33;1.27;;;10.10;80.40;;;;;;5001292;28;20012;-64
2021/10/01 04:42:21;;;;;;;5.70;1.20;;;10.10;80.30;;;;;;5004594;28;20033;-63
2021/10/01 04:44:47;;;;;;;2.97;0.88;;;10.20;79.80;;;;;;5006299;28;20034;-64
2021/10/01 04:47:12;;;;;;;5.18;1.00;;;10.30;79.80;;;;;;5003456;28;20105;-64
2021/10/01 04:49:38;;;;;;;5.47;1.42;;;10.20;80.00;;;;;;4997743;28;20648;-63
2021/10/01 04:52:04;;;;;;;8.32;1.13;;;10.10;79.90;;;;;;5002465;28;20037;-63
2021/10/01 04:54:29;;;;;;;2.53;1.13;;;10.10;80.20;;;;;;5002720;28;20070;-64
2021/10/01 04:56:55;;;;;;;4.57;1.10;;;10.10;80.40;;;;;;5009481;28;20749;-63
2021/10/01 04:59:21;;;;;;;3.78;1.13;;;10.10;79.90;;;;;;5003125;28;20389;-64
2021/10/01 05:01:46;;;;;;;2.10;0.93;;;10.30;79.50;;;;;;4993296;28;20033;-63
2021/10/01 05:04:12;;;;;;;5.32;1.17;;;10.30;79.70;;;;;;5002124;28;20075;-64
2021/10/01 05:06:38;;;;;;;5.35;1.00;;;10.30;79.60;;;;;;5003417;28;20105;-63
2021/10/01 05:09:04;;;;;;;4.78;0.93;;;10.20;79.70;;;;;;4995970;28;20037;-64
2021/10/01 05:11:30;;;;;;;4.30;0.95;;;10.30;79.80;;;;;;5010143;28;20041;-63
2021/10/01 05:13:55;;;;;;;8.63;1.13;;;10.20;79.70;;;;;;4998736;28;20034;-64
2021/10/01 05:16:21;;;;;;;7.93;1.02;;;10.20;79.90;;;;;;5007802;28;20103;-63
2021/10/01 05:18:46;;;;;;;2.75;1.20;;;10.10;80.00;;;;;;5002553;28;20028;-64
2021/10/01 05:21:12;;;;;;;5.72;1.27;;;10.20;80.00;;;;;;5001919;28;20401;-64
2021/10/01 05:23:38;;;;;;;6.47;1.30;;;10.20;79.50;;;;;;5001333;28;20033;-64
2021/10/01 05:26:04;;;;;;;1.58;0.77;;;10.30;79.50;;;;;;5003045;28;20080;-64
2021/10/01 05:28:29;;;;;;;2.65;0.90;;;10.30;79.50;;;;;;5002437;28;20045;-64
2021/10/01 05:30:55;;;;;;;6.30;1.40;;;10.30;79.20;;;;;;5007389;28;20030;-64
2021/10/01 05:33:21;;;;;;;3.08;1.02;;;10.30;79.20;;;;;;5013685;28;20113;-63
2021/10/01 05:35:47;;;;;;;3.60;1.25;;;10.30;79.50;;;;;;5005721;28;20370;-64
2021/10/01 05:38:13;;;;;;;3.00;1.00;;;10.30;79.50;;;;;;5000605;28;20113;-63
2021/10/01 05:40:40;;;;;;;4.38;0.88;;;10.20;80.10;;;;;;5014541;28;20060;-63
2021/10/01 05:43:06;;;;;;;3.00;1.13;;;10.10;80.50;;;;;;5000132;28;20058;-63
2021/10/01 05:45:33;;;;;;;5.65;0.90;;;10.10;80.30;;;;;;4993802;28;20033;-64
2021/10/01 05:47:59;;;;;;;3.50;1.42;;;10.10;80.30;;;;;;5006192;28;20033;-63
2021/10/01 05:50:27;;;;;;;2.97;1.00;;;10.10;80.40;;;;;;5005429;28;20110;-63
2021/10/01 05:52:57;;;;;;;3.85;0.80;;;10.10;80.80;;;;;;5003734;28;20034;-66
2021/10/01 05:55:23;;;;;;;6.28;1.20;;;10.20;80.40;;;;;;5000902;28;20029;-67
2021/10/01 05:57:49;;;;;;;7.63;1.08;;;10.20;80.60;;;;;;5003974;28;20036;-66
2021/10/01 06:00:15;;;;;;;3.42;0.93;;;10.30;79.70;;;;;;5004769;28;20037;-66
2021/10/01 06:02:42;;;;;;;3.55;1.00;;;10.30;80.00;;;;;;5002920;28;20448;-66
2021/10/01 06:05:09;;;;;;;3.22;0.98;;;10.40;79.90;;;;;;5002531;28;20117;-66
2021/10/01 06:07:35;;;;;;;5.47;1.15;;;10.40;79.80;;;;;;5006414;28;20030;-66
2021/10/01 06:10:00;;;;;;;5.38;0.85;;;10.50;79.80;;;;;;5009515;28;20400;-66
2021/10/01 06:12:26;;;;;;;8.57;1.23;;;10.50;79.80;;;;;;5004006;28;20452;-66
2021/10/01 06:14:51;;;;;;;1.42;0.77;;;10.50;79.50;;;;;;5003783;28;20084;-66
2021/10/01 06:17:17;;;;;;;8.93;1.10;;;10.60;79.60;;;;;;5001783;28;20037;-66
2021/10/01 06:19:44;;;;;;;2.83;1.20;;;10.60;79.50;;;;;;4998383;28;20482;-63
2021/10/01 06:22:12;;;;;;;2.20;0.80;;;10.60;79.40;;;;;;4996075;28;20079;-63
2021/10/01 06:24:39;;;;;;;3.80;1.08;;;10.70;79.10;;;;;;4999070;28;20485;-63
2021/10/01 06:27:05;;;;;;;5.57;1.05;;;10.80;78.60;;;;;;5005474;28;20034;-61
2021/10/01 06:29:32;;;;;;;5.25;0.90;;;10.80;79.30;;;;;;5002859;28;20030;-62
2021/10/01 06:31:58;;;;;;;4.97;1.35;;;10.90;78.10;;;;;;5005285;28;20044;-63
2021/10/01 06:34:24;;;;;;;4.97;0.90;;;10.90;78.40;;;;;;4995169;28;20437;-63
2021/10/01 06:36:49;;;;;;;2.38;0.88;;;10.90;78.60;;;;;;4998752;28;20308;-63
2021/10/01 06:39:15;;;;;;;3.35;1.00;;;10.90;78.50;;;;;;5001252;28;20485;-63
2021/10/01 06:41:42;;;;;;;5.10;0.75;;;11.00;78.10;;;;;;4998954;28;20026;-62
2021/10/01 06:44:10;;;;;;;6.57;1.20;;;11.00;78.30;;;;;;4994152;28;20034;-63
2021/10/01 07:22:16;;;;;;;5.32;0.80;;;11.50;77.70;;;;;;5001973;28;20036;-63
2021/10/01 08:19:23;;;;;;;2.88;0.95;;;12.90;73.60;;;;;;5006571;28;20040;-62
2021/10/01 08:21:54;;;;;;;2.72;0.57;;;13.10;73.20;;;;;;5003982;28;20360;-62
2021/10/01 08:24:20;;;;;;;3.42;0.80;;;13.30;73.60;;;;;;4998342;28;20022;-63
2021/10/01 08:26:47;;;;;;;10.43;1.52;;;13.30;73.10;;;;;;5008302;28;20033;-64
2021/10/01 08:29:13;;;;;;;4.28;1.00;;;13.40;72.20;;;;;;5003759;28;20017;-62
2021/10/01 08:31:39;;;;;;;3.60;1.20;;;13.50;72.40;;;;;;5009134;28;20032;-64
2021/10/01 08:34:06;;;;;;;4.03;0.73;;;13.50;71.70;;;;;;5003273;28;20025;-63
2021/10/01 08:36:32;;;;;;;3.85;0.90;;;13.60;71.70;;;;;;5001615;28;20084;-64
2021/10/01 08:38:58;;;;;;;4.28;0.90;;;13.60;70.60;;;;;;5002089;28;20061;-63
2021/10/01 08:41:24;;;;;;;3.45;0.82;;;13.80;70.50;;;;;;5008265;28;20668;-61
2021/10/01 08:43:50;;;;;;;3.67;1.10;;;13.90;70.70;;;;;;4994416;28;20034;-63
2021/10/01 08:46:17;;;;;;;5.72;0.90;;;14.00;71.50;;;;;;5001916;28;20056;-64
2021/10/01 08:48:44;;;;;;;3.22;1.00;;;14.00;69.80;;;;;;4998592;28;20503;-63
2021/10/01 08:51:12;;;;;;;4.93;0.90;;;14.10;69.50;;;;;;5002701;28;20030;-64
2021/10/01 08:53:38;;;;;;;2.63;0.80;;;14.20;70.00;;;;;;5004188;28;20041;-64
2021/10/01 08:56:05;;;;;;;2.97;0.90;;;14.20;68.90;;;;;;4994577;28;20485;-63
2021/10/01 08:58:31;;;;;;;4.07;0.90;;;14.20;68.10;;;;;;4998270;28;20025;-64
2021/10/01 09:00:58;;;;;;;4.30;0.98;;;14.40;68.40;;;;;;5001546;28;20037;-63
2021/10/01 09:03:24;;;;;;;3.58;0.98;;;14.50;68.30;;;;;;4999159;28;20045;-62
2021/10/01 09:05:49;;;;;;;3.95;0.70;;;14.70;67.70;;;;;;4996455;28;20038;-63
2021/10/01 09:08:18;;;;;;;2.05;0.65;;;15.00;67.40;;;;;;4999734;28;20028;-62
2021/10/01 09:11:05;;;;;;;3.08;0.70;;;15.10;67.00;;;;;;5011400;28;20045;-63
2021/10/01 09:13:34;;;;;;;1.58;0.80;;;15.10;66.50;;;;;;5007720;28;20382;-63
2021/10/01 09:16:04;;;;;;;2.75;0.90;;;15.00;66.90;;;;;;5011363;28;20057;-63
2021/10/01 09:18:31;;;;;;;3.35;0.80;;;15.10;64.90;;;;;;5004583;28;20033;-63
2021/10/01 09:21:06;;;;;;;5.72;1.00;;;15.40;65.90;;;;;;4999594;28;20034;-64
2021/10/01 09:23:36;;;;;;;2.35;0.60;;;15.50;65.20;;;;;;5010955;28;20504;-63
2021/10/01 09:26:12;;;;;;;6.38;1.10;;;15.50;64.50;;;;;;5001092;28;20409;-61
2021/10/01 09:28:47;;;;;;;2.88;0.60;;;15.60;65.70;;;;;;5012711;28;20628;-63
2021/10/01 09:31:35;;;;;;;2.88;0.80;;;15.60;64.40;;;;;;5003976;28;20029;-63
2021/10/01 09:34:02;;;;;;;6.25;0.82;;;15.90;64.00;;;;;;5010302;28;20077;-61
2021/10/01 09:36:28;;;;;;;8.90;1.08;;;16.10;65.10;;;;;;5001523;28;20519;-63
2021/10/01 09:38:55;;;;;;;5.13;0.93;;;16.10;62.20;;;;;;5016773;28;20072;-63
2021/10/01 09:41:26;;;;;;;5.43;1.00;;;16.40;61.50;;;;;;5005080;28;20026;-62
2021/10/01 09:43:59;;;;;;;4.07;0.90;;;16.30;63.50;;;;;;5006422;28;20473;-62
2021/10/01 09:46:37;;;;;;;4.40;0.90;;;16.30;62.20;;;;;;5003300;28;20024;-63
2021/10/01 09:49:04;;;;;;;3.08;0.70;;;16.30;62.80;;;;;;5006272;28;20026;-62
2021/10/01 09:51:30;;;;;;;7.47;0.80;;;16.00;64.10;;;;;;4998811;28;20221;-63
2021/10/01 09:53:56;;;;;;;3.10;0.70;;;15.70;64.00;;;;;;5008520;28;20060;-62
2021/10/01 09:56:30;;;;;;;3.53;0.93;;;15.80;64.00;;;;;;5005028;28;20145;-63
2021/10/01 09:59:15;;;;;;;2.58;0.80;;;15.90;63.10;;;;;;5002346;28;20030;-62
2021/10/01 10:01:58;;;;;;;3.53;0.73;;;15.90;64.20;;;;;;5000378;28;20081;-62
2021/10/01 10:04:25;;;;;;;2.58;0.73;;;16.30;63.30;;;;;;5000380;28;20238;-62
2021/10/01 10:06:50;;;;;;;3.05;0.90;;;16.40;61.60;;;;;;5001593;28;20108;-63
2021/10/01 10:09:33;;;;;;;1.63;0.57;;;16.80;62.20;;;;;;5004233;28;20032;-62
2021/10/01 10:11:59;;;;;;;3.63;0.85;;;16.80;61.60;;;;;;5004500;28;20221;-63
2021/10/01 10:14:25;;;;;;;2.85;0.70;;;17.00;62.60;;;;;;5005920;28;20021;-61
2021/10/01 10:16:51;;;;;;;6.88;1.00;;;16.80;62.60;;;;;;5008925;28;20071;-61
2021/10/01 10:19:23;;;;;;;2.47;0.55;;;16.90;62.10;;;;;;5001101;28;20025;-64
2021/10/01 10:21:49;;;;;;;5.00;1.10;;;16.80;60.80;;;;;;4991500;28;20117;-63
2021/10/01 10:24:15;;;;;;;3.55;0.80;;;17.10;62.50;;;;;;5000413;28;20412;-64
2021/10/01 10:26:41;;;;;;;6.40;0.70;;;17.00;62.00;;;;;;5003290;28;20022;-62
2021/10/01 10:29:09;;;;;;;3.40;1.10;;;17.30;62.30;;;;;;4995240;28;22267;-63
2021/10/01 10:31:44;;;;;;;3.30;1.00;;;17.50;59.30;;;;;;4995810;28;20018;-62
2021/10/01 10:34:30;;;;;;;5.43;1.00;;;17.50;58.40;;;;;;4995314;28;20028;-63
2021/10/01 10:37:10;;;;;;;2.65;0.75;;;17.30;59.80;;;;;;4999209;28;20448;-62
2021/10/01 10:39:42;;;;;;;5.40;0.60;;;17.10;60.10;;;;;;4998165;28;20128;-63
2021/10/01 10:42:12;;;;;;;1.85;0.65;;;17.50;60.60;;;;;;5003231;28;20029;-65
2021/10/01 10:44:48;;;;;;;2.13;0.80;;;17.50;59.30;;;;;;5004095;28;21254;-64
2021/10/01 10:47:38;;;;;;;5.15;0.95;;;17.80;58.60;;;;;;5006872;28;20032;-63
2021/10/01 10:50:25;;;;;;;2.90;0.88;;;17.90;58.30;;;;;;4998362;28;20034;-65
2021/10/01 10:53:16;;;;;;;6.40;0.80;;;17.90;59.70;;;;;;5008579;28;20065;-65
2021/10/01 10:55:51;;;;;;;5.78;0.90;;;17.80;59.10;;;;;;5009826;28;20123;-65
2021/10/01 10:58:22;;;;;;;3.97;0.90;;;17.50;59.00;;;;;;4999327;28;20030;-65
2021/10/01 11:00:56;;;;;;;3.15;0.60;;;17.30;59.70;;;;;;4997025;28;20030;-65
2021/10/01 11:03:25;;;;;;;3.65;1.08;;;17.50;59.00;;;;;;5003962;28;20033;-64
2021/10/01 11:06:08;;;;;;;4.60;1.13;;;17.40;59.90;;;;;;5000332;28;20045;-64
2021/10/01 11:08:36;;;;;;;3.33;0.77;;;17.50;61.30;;;;;;4999384;28;20080;-65
2021/10/01 11:11:02;;;;;;;2.42;0.88;;;17.80;59.70;;;;;;4998938;28;20034;-64
2021/10/01 11:13:34;;;;;;;5.25;0.80;;;17.70;59.70;;;;;;5004089;28;20367;-65
2021/10/01 11:16:12;;;;;;;4.57;0.90;;;17.70;61.10;;;;;;5007741;28;20034;-64
2021/10/01 11:18:44;;;;;;;5.28;0.95;;;17.40;59.70;;;;;;4992835;28;20037;-65
2021/10/01 11:21:28;;;;;;;2.58;0.73;;;17.50;61.00;;;;;;5002564;28;20578;-64
2021/10/01 11:24:11;;;;;;;3.05;0.80;;;17.90;60.00;;;;;;5003296;28;20037;-63
2021/10/01 11:26:40;;;;;;;1.85;0.55;;;18.10;59.90;;;;;;4997829;28;20041;-66
2021/10/01 11:29:30;;;;;;;4.05;0.75;;;17.70;59.60;;;;;;5001785;28;20033;-65
2021/10/01 11:32:03;;;;;;;5.07;0.57;;;18.00;58.40;;;;;;5005247;28;20021;-64
2021/10/01 11:34:59;;;;;;;3.17;0.63;;;18.10;59.40;;;;;;4997907;28;20031;-63
2021/10/01 11:37:39;;;;;;;4.95;0.93;;;18.00;58.40;;;;;;4992489;28;20037;-63
2021/10/01 11:40:16;;;;;;;4.30;1.05;;;18.50;57.90;;;;;;5004642;28;20045;-65
2021/10/01 11:42:44;;;;;;;2.90;0.63;;;18.60;58.30;;;;;;5007682;28;20107;-65
2021/10/01 11:45:24;;;;;;;3.78;0.85;;;19.10;57.00;;;;;;4997964;28;20525;-64
2021/10/01 11:48:04;;;;;;;2.43;0.70;;;19.30;56.00;;;;;;5005739;28;20041;-65
2021/10/01 11:50:33;;;;;;;2.58;0.60;;;19.50;56.90;;;;;;5000042;28;20069;-64
2021/10/01 11:52:59;;;;;;;2.88;0.55;;;19.40;54.10;;;;;;4999115;28;20033;-64
2021/10/01 11:55:30;;;;;;;5.97;1.02;;;19.40;54.70;;;;;;4996315;28;20704;-66
2021/10/01 11:57:56;;;;;;;5.15;0.90;;;19.60;54.70;;;;;;5002228;28;20135;-65
2021/10/01 12:00:22;;;;;;;7.07;0.90;;;19.80;53.80;;;;;;4994528;28;20034;-65
2021/10/01 12:02:50;;;;;;;4.38;0.75;;;20.00;55.00;;;;;;4991717;28;20062;-65
2021/10/01 12:05:24;;;;;;;3.15;0.77;;;20.30;54.30;;;;;;5000164;28;20040;-65
2021/10/01 12:07:55;;;;;;;4.55;0.93;;;20.00;54.60;;;;;;4997120;28;20033;-65
2021/10/01 12:10:23;;;;;;;4.72;1.02;;;19.70;54.40;;;;;;4994001;28;20034;-65
2021/10/01 12:13:11;;;;;;;3.20;0.70;;;19.10;55.70;;;;;;4995765;28;20035;-65
2021/10/01 12:15:37;;;;;;;5.03;0.80;;;18.50;58.30;;;;;;5004340;28;20045;-65
2021/10/01 12:18:05;;;;;;;3.85;0.82;;;18.20;58.70;;;;;;5000496;28;20433;-63
2021/10/01 12:20:43;;;;;;;2.63;0.65;;;18.20;60.40;;;;;;5009474;28;20042;-64
2021/10/01 12:23:27;;;;;;;2.60;0.50;;;18.00;58.90;;;;;;4997826;28;20034;-64
2021/10/01 12:25:54;;;;;;;9.27;1.00;;;17.70;59.70;;;;;;5000779;28;20029;-65
2021/10/01 12:28:21;;;;;;;3.72;0.75;;;17.40;61.50;;;;;;4998636;28;20038;-64
2021/10/01 12:31:03;;;;;;;4.63;0.60;;;17.60;61.50;;;;;;4998659;28;20031;-62
2021/10/01 12:33:30;;;;;;;5.95;0.98;;;17.50;60.40;;;;;;5000701;28;20143;-64
2021/10/01 12:35:56;;;;;;;6.10;1.08;;;17.70;60.60;;;;;;4997885;28;20022;-63
2021/10/01 12:38:21;;;;;;;4.47;0.90;;;18.20;59.60;;;;;;5002638;28;20040;-64
2021/10/01 12:41:11;;;;;;;1.08;0.65;;;18.30;57.40;;;;;;5010323;28;20272;-64
2021/10/01 12:43:53;;;;;;;5.30;0.90;;;19.00;57.70;;;;;;5007159;28;20034;-64
2021/10/01 12:46:44;;;;;;;2.50;0.70;;;18.60;57.60;;;;;;5002590;28;20026;-63
2021/10/01 12:49:11;;;;;;;4.15;0.90;;;18.90;57.30;;;;;;4996413;28;20209;-65
2021/10/01 12:51:36;;;;;;;3.70;0.95;;;18.30;57.40;;;;;;5007297;28;20026;-63
2021/10/01 12:54:23;;;;;;;5.40;0.73;;;18.60;58.40;;;;;;5004373;28;20034;-64
2021/10/01 12:57:21;;;;;;;3.97;1.00;;;18.60;57.70;;;;;;4997988;28;20496;-63
2021/10/01 12:59:54;;;;;;;3.83;0.70;;;18.50;57.90;;;;;;4998538;28;20060;-62
2021/10/01 13:02:21;;;;;;;5.63;0.80;;;18.20;56.50;;;;;;5004824;28;20034;-64
2021/10/01 13:04:59;;;;;;;3.20;0.82;;;18.30;58.60;;;;;;4999641;28;20389;-65
2021/10/01 13:07:28;;;;;;;6.97;0.90;;;18.50;59.00;;;;;;5007989;28;20033;-64
2021/10/01 13:09:56;;;;;;;4.82;0.90;;;18.60;59.40;;;;;;5003475;28;20571;-65
2021/10/01 13:12:30;;;;;;;4.15;0.77;;;19.30;59.30;;;;;;5006583;28;20041;-63
2021/10/01 13:15:28;;;;;;;2.65;0.57;;;19.20;57.60;;;;;;4996689;28;20031;-65
2021/10/01 13:18:15;;;;;;;3.13;0.85;;;19.30;55.60;;;;;;5004840;28;20030;-65
2021/10/01 13:20:45;;;;;;;2.47;0.80;;;19.70;55.20;;;;;;4996789;28;20096;-64
2021/10/01 13:23:13;;;;;;;2.50;0.60;;;19.50;55.30;;;;;;5004663;28;20048;-65
2021/10/01 13:25:52;;;;;;;5.57;0.82;;;19.30;55.90;;;;;;5004960;28;20105;-63
2021/10/01 13:28:19;;;;;;;7.13;1.10;;;19.70;56.20;;;;;;4989360;28;20022;-65
2021/10/01 13:30:45;;;;;;;6.05;0.93;;;19.30;53.70;;;;;;5002997;28;20037;-64
2021/10/01 13:33:12;;;;;;;1.95;0.77;;;18.80;56.10;;;;;;5008516;28;20378;-65
2021/10/01 13:35:38;;;;;;;2.75;0.50;;;18.60;56.60;;;;;;4998207;28;20411;-65
2021/10/01 13:38:05;;;;;;;4.88;0.80;;;18.50;57.30;;;;;;5000590;28;20124;-62
2021/10/01 13:40:32;;;;;;;3.08;0.80;;;19.10;57.40;;;;;;5002742;28;20030;-65
2021/10/01 13:42:58;;;;;;;3.20;1.00;;;20.00;54.90;;;;;;5002244;28;20513;-65
2021/10/01 13:45:24;;;;;;;1.92;0.77;;;20.60;51.10;;;;;;5006228;28;20157;-65
2021/10/01 13:47:50;;;;;;;3.28;0.80;;;20.40;51.00;;;;;;5001545;28;20075;-65
2021/10/01 13:50:15;;;;;;;2.58;0.55;;;20.60;51.20;;;;;;5002466;28;20388;-63
2021/10/01 13:52:41;;;;;;;2.20;0.80;;;20.70;51.40;;;;;;5003445;28;20030;-63
2021/10/01 13:55:10;;;;;;;1.50;0.63;;;20.20;50.40;;;;;;5000629;28;20044;-64
2021/10/01 13:57:35;;;;;;;4.50;0.80;;;20.80;50.90;;;;;;4996522;28;20032;-64
2021/10/01 14:00:03;;;;;;;3.72;0.80;;;20.90;51.20;;;;;;5001077;28;20030;-64
2021/10/01 14:02:29;;;;;;;3.20;0.77;;;20.70;50.00;;;;;;5004659;28;20213;-65
2021/10/01 14:04:54;;;;;;;5.32;0.63;;;20.50;50.60;;;;;;5006461;28;20029;-64
2021/10/01 14:07:20;;;;;;;4.72;0.60;;;20.30;52.00;;;;;;5004422;28;20072;-65
2021/10/01 14:09:46;;;;;;;3.67;0.70;;;19.90;52.80;;;;;;5004532;28;20120;-63
2021/10/01 14:12:13;;;;;;;2.50;0.52;;;20.30;52.20;;;;;;5001578;28;20053;-63
2021/10/01 14:14:38;;;;;;;3.33;0.63;;;20.00;50.80;;;;;;4998408;28;20038;-63
2021/10/01 14:17:04;;;;;;;3.33;0.50;;;20.10;51.30;;;;;;4994294;28;20044;-62
2021/10/01 14:19:30;;;;;;;3.72;0.95;;;19.60;51.10;;;;;;4992592;28;20034;-64
2021/10/01 14:21:55;;;;;;;4.63;0.93;;;19.20;52.70;;;;;;4995604;28;20570;-65
2021/10/01 14:24:21;;;;;;;5.20;0.90;;;20.10;51.80;;;;;;4993399;28;20485;-62
2021/10/01 14:26:49;;;;;;;3.10;0.77;;;19.40;52.00;;;;;;5000904;28;20035;-64
2021/10/01 14:29:14;;;;;;;1.42;0.50;;;19.00;52.30;;;;;;4998243;28;20441;-64
2021/10/01 14:31:40;;;;;;;2.20;0.77;;;19.00;51.90;;;;;;5000499;28;20060;-64